createdAt,value
2022-08-11T00:02:28.387Z,17.82
2022-08-11T00:04:57.440Z,17.78
2022-08-11T00:07:26.836Z,17.63
2022-08-11T00:09:54.796Z,17.47
2022-08-11T00:12:21.859Z,17.62
2022-08-11T00:14:58.157Z,17.53
2022-08-11T00:17:29.473Z,17.54
2022-08-11T00:20:13.344Z,17.64
2022-08-11T00:22:44.814Z,17.42
2022-08-11T00:25:19.544Z,17.39
2022-08-11T00:27:48.268Z,17.41
2022-08-11T00:30:16.412Z,17.40
2022-08-11T00:32:46.227Z,17.43
2022-08-11T00:35:54.344Z,17.35
2022-08-11T00:38:06.978Z,17.20
2022-08-11T00:40:48.579Z,17.16
2022-08-11T00:43:38.010Z,17.16
2022-08-11T00:46:27.560Z,17.02
2022-08-11T00:49:39.583Z,16.99
2022-08-11T00:52:25.055Z,16.96
2022-08-11T00:55:07.980Z,16.94
2022-08-11T00:57:55.627Z,16.96
2022-08-11T01:00:27.210Z,16.94
2022-08-11T01:03:13.492Z,16.68
2022-08-11T01:06:05.377Z,16.79
2022-08-11T01:09:02.796Z,16.71
2022-08-11T01:12:06.298Z,16.58
2022-08-11T01:14:47.942Z,16.67
2022-08-11T01:17:26.741Z,16.63
2022-08-11T01:20:46.011Z,16.60
2022-08-11T01:23:53.050Z,16.60
2022-08-11T01:26:38.559Z,16.59
2022-08-11T01:29:08.006Z,16.68
2022-08-11T01:32:13.069Z,16.63
2022-08-11T01:35:10.542Z,16.82
2022-08-11T01:37:59.269Z,16.88
2022-08-11T01:41:08.385Z,16.85
2022-08-11T01:44:27.950Z,16.77
2022-08-11T01:47:34.680Z,16.61
2022-08-11T01:50:38.691Z,16.75
2022-08-11T01:53:24.067Z,16.60
2022-08-11T01:56:06.103Z,16.72
2022-08-11T01:59:00.426Z,16.46
2022-08-11T02:01:58.399Z,16.57
2022-08-11T02:04:56.150Z,16.48
2022-08-11T02:07:58.218Z,16.46
2022-08-11T02:10:51.546Z,16.32
2022-08-11T02:13:20.839Z,16.40
2022-08-11T02:16:27.239Z,16.40
2022-08-11T02:19:36.064Z,16.42
2022-08-11T02:22:54.749Z,16.40
2022-08-11T02:25:34.570Z,16.41
2022-08-11T02:28:04.721Z,16.47
2022-08-11T02:30:40.912Z,16.45
2022-08-11T02:33:24.623Z,16.40
2022-08-11T02:36:00.365Z,16.35
2022-08-11T02:38:38.768Z,16.39
2022-08-11T02:41:42.555Z,16.34
2022-08-11T02:44:32.684Z,16.18
2022-08-11T02:47:06.823Z,16.15
2022-08-11T02:50:02.540Z,16.09
2022-08-11T02:53:13.123Z,15.92
2022-08-11T02:55:57.239Z,15.92
2022-08-11T02:58:44.310Z,15.96
2022-08-11T03:01:28.728Z,15.88
2022-08-11T03:04:09.092Z,15.81
2022-08-11T03:06:50.683Z,15.75
2022-08-11T03:09:36.126Z,15.75
2022-08-11T03:12:29.488Z,15.74
2022-08-11T03:15:22.043Z,15.68
2022-08-11T03:17:57.541Z,15.76
2022-08-11T03:20:33.232Z,15.72
2022-08-11T03:23:19.987Z,15.69
2022-08-11T03:25:55.839Z,15.69
2022-08-11T03:28:43.639Z,15.59
2022-08-11T03:31:19.901Z,15.61
2022-08-11T03:34:07.010Z,15.58
2022-08-11T03:37:16.170Z,15.59
2022-08-11T03:40:07.017Z,15.53
2022-08-11T03:42:55.895Z,15.53
2022-08-11T03:45:41.162Z,15.45
2022-08-11T03:48:29.543Z,15.49
2022-08-11T03:50:56.188Z,15.47
2022-08-11T03:53:22.900Z,15.51
2022-08-11T03:56:11.673Z,15.34
2022-08-11T03:58:56.652Z,15.39
2022-08-11T04:01:56.388Z,15.29
2022-08-11T04:04:51.320Z,15.27
2022-08-11T04:07:46.246Z,15.29
2022-08-11T04:10:42.066Z,15.31
2022-08-11T04:13:45.469Z,15.29
2022-08-11T04:16:38.360Z,15.23
2022-08-11T04:19:42.493Z,15.27
2022-08-11T04:22:40.467Z,15.39
2022-08-11T04:25:51.144Z,15.41
2022-08-11T04:28:49.875Z,15.41
2022-08-11T04:31:51.090Z,15.39
2022-08-11T04:34:09.388Z,15.43
2022-08-11T04:37:05.881Z,15.54
2022-08-11T04:40:00.518Z,15.49
2022-08-11T04:42:48.599Z,15.62
2022-08-11T04:45:27.068Z,15.62
2022-08-11T04:48:45.369Z,15.70
2022-08-11T04:51:51.881Z,15.93
2022-08-11T04:55:13.711Z,15.95
2022-08-11T04:58:17.642Z,16.09
2022-08-11T05:01:15.124Z,16.37
2022-08-11T05:04:28.124Z,16.36
2022-08-11T05:06:58.091Z,16.58
2022-08-11T05:09:49.307Z,16.67
2022-08-11T05:12:46.431Z,17.12
2022-08-11T05:15:42.597Z,18.61
2022-08-11T05:18:39.376Z,19.80
2022-08-11T05:21:29.457Z,20.44
2022-08-11T05:24:42.384Z,20.72
2022-08-11T05:27:33.267Z,21.23
2022-08-11T05:30:24.816Z,21.95
2022-08-11T05:33:40.163Z,22.46
2022-08-11T05:36:06.817Z,22.91
2022-08-11T05:38:54.746Z,23.11
2022-08-11T05:41:45.588Z,23.40
2022-08-11T05:44:37.736Z,23.26
2022-08-11T05:47:23.474Z,23.55
2022-08-11T05:50:13.758Z,23.62
2022-08-11T05:53:03.903Z,23.32
2022-08-11T05:56:01.764Z,23.52
2022-08-11T05:58:41.157Z,23.52
2022-08-11T06:01:09.868Z,23.81
2022-08-11T06:03:58.036Z,24.22
2022-08-11T06:06:29.156Z,24.77
2022-08-11T06:08:58.089Z,24.57
2022-08-11T06:11:43.516Z,24.25
2022-08-11T06:14:12.260Z,24.98
2022-08-11T06:16:42.055Z,25.16
2022-08-11T06:19:09.932Z,25.38
2022-08-11T06:21:38.050Z,25.74
2022-08-11T06:24:11.911Z,25.53
2022-08-11T06:27:08.735Z,25.40
2022-08-11T06:29:37.613Z,25.92
2022-08-11T06:32:15.661Z,26.08
2022-08-11T06:35:04.060Z,25.90
2022-08-11T06:37:36.544Z,26.38
2022-08-11T06:40:11.715Z,26.51
2022-08-11T06:42:50.446Z,26.21
2022-08-11T06:45:54.664Z,26.84
2022-08-11T06:48:24.287Z,26.91
2022-08-11T06:51:12.200Z,26.65
2022-08-11T06:54:03.603Z,26.86
2022-08-11T06:57:12.112Z,27.13
2022-08-11T06:59:59.717Z,27.03
2022-08-11T07:02:52.089Z,27.10
2022-08-11T07:05:43.764Z,26.97
2022-08-11T07:08:59.846Z,26.96
2022-08-11T07:12:07.232Z,27.36
2022-08-11T07:14:58.246Z,27.54
2022-08-11T07:17:28.799Z,27.94
2022-08-11T07:20:19.546Z,27.54
2022-08-11T07:23:17.632Z,27.93
2022-08-11T07:26:09.115Z,27.85
2022-08-11T07:28:57.901Z,27.16
2022-08-11T07:31:50.189Z,27.27
2022-08-11T07:34:28.132Z,27.18
2022-08-11T07:36:56.839Z,27.26
2022-08-11T07:39:27.922Z,27.89
2022-08-11T07:41:58.338Z,27.86
2022-08-11T07:44:34.252Z,27.74
2022-08-11T07:47:20.470Z,27.96
2022-08-11T07:50:08.830Z,27.87
2022-08-11T07:52:38.405Z,28.09
2022-08-11T07:55:13.871Z,28.24
2022-08-11T07:58:16.475Z,28.61
2022-08-11T08:01:21.235Z,28.35
2022-08-11T08:04:08.943Z,28.77
2022-08-11T08:06:56.557Z,27.95
2022-08-11T08:09:43.868Z,28.32
2022-08-11T08:12:31.281Z,28.36
2022-08-11T08:15:16.986Z,28.58
2022-08-11T08:18:09.799Z,28.30
2022-08-11T08:20:52.444Z,28.55
2022-08-11T08:23:35.112Z,28.14
2022-08-11T08:26:28.442Z,28.29
2022-08-11T08:29:16.680Z,28.14
2022-08-11T08:31:43.938Z,27.79
2022-08-11T08:34:11.403Z,27.61
2022-08-11T08:36:42.271Z,27.39
2022-08-11T08:39:09.129Z,27.73
2022-08-11T08:41:38.578Z,27.76
2022-08-11T08:44:35.081Z,28.22
2022-08-11T08:46:59.799Z,28.75
2022-08-11T08:49:34.187Z,28.95
2022-08-11T08:52:26.127Z,28.60
2022-08-11T08:54:58.176Z,29.00
2022-08-11T08:57:29.288Z,28.99
2022-08-11T08:59:56.853Z,29.01
2022-08-11T09:02:34.171Z,29.10
2022-08-11T09:05:04.104Z,29.15
2022-08-11T09:07:38.999Z,29.20
2022-08-11T09:10:08.452Z,29.24
2022-08-11T09:12:38.798Z,28.67
2022-08-11T09:15:09.222Z,28.68
2022-08-11T09:17:40.460Z,28.90
2022-08-11T09:20:11.903Z,28.70
2022-08-11T09:23:54.520Z,28.73
2022-08-11T09:26:07.127Z,29.18
2022-08-11T09:28:35.860Z,28.83
2022-08-11T09:31:02.813Z,28.92
2022-08-11T09:33:31.746Z,29.13
2022-08-11T09:36:20.295Z,28.85
2022-08-11T09:39:06.137Z,28.93
2022-08-11T09:42:01.271Z,29.23
2022-08-11T09:44:40.810Z,29.25
2022-08-11T09:47:15.094Z,29.12
2022-08-11T09:49:46.105Z,29.45
2022-08-11T09:52:14.763Z,29.00
2022-08-11T09:54:47.998Z,28.87
2022-08-11T09:57:37.122Z,28.86
2022-08-11T10:00:12.657Z,29.15
2022-08-11T10:02:46.550Z,29.08
2022-08-11T10:05:36.070Z,28.78
2022-08-11T10:08:03.653Z,28.93
2022-08-11T10:10:35.461Z,29.39
2022-08-11T10:13:05.410Z,29.38
2022-08-11T10:16:14.641Z,29.20
2022-08-11T10:18:54.071Z,29.02
2022-08-11T10:21:29.143Z,29.42
2022-08-11T10:24:18.843Z,29.53
2022-08-11T10:26:54.684Z,29.41
2022-08-11T10:29:58.164Z,29.43
2022-08-11T10:32:57.512Z,29.29
2022-08-11T10:35:28.369Z,29.48
2022-08-11T10:38:16.043Z,29.72
2022-08-11T10:40:47.221Z,29.58
2022-08-11T10:44:01.378Z,30.00
2022-08-11T10:46:29.664Z,29.39
2022-08-11T10:48:58.897Z,29.73
2022-08-11T10:51:51.051Z,29.53
2022-08-11T10:54:39.320Z,30.14
2022-08-11T10:57:27.823Z,30.24
2022-08-11T10:59:56.207Z,29.70
2022-08-11T11:02:23.238Z,29.66
2022-08-11T11:04:58.501Z,29.74
2022-08-11T11:07:37.280Z,30.10
2022-08-11T11:10:11.000Z,30.34
2022-08-11T11:13:04.440Z,29.91
2022-08-11T11:15:53.659Z,29.95
2022-08-11T11:18:29.867Z,29.66
2022-08-11T11:21:06.232Z,29.91
2022-08-11T11:23:35.704Z,30.42
2022-08-11T11:26:10.995Z,30.33
2022-08-11T11:28:56.454Z,30.09
2022-08-11T11:31:44.469Z,29.96
2022-08-11T11:34:12.777Z,30.23
2022-08-11T11:36:49.022Z,29.97
2022-08-11T11:39:24.853Z,30.11
2022-08-11T11:41:55.645Z,29.98
2022-08-11T11:44:23.349Z,29.97
2022-08-11T11:46:51.267Z,29.84
2022-08-11T11:51:53.893Z,29.38
2022-08-11T11:54:31.362Z,29.99
2022-08-11T11:57:19.942Z,29.96
2022-08-11T12:00:08.864Z,29.96
2022-08-11T12:02:37.009Z,29.76
2022-08-11T12:05:05.272Z,29.45
2022-08-11T12:07:56.892Z,29.52
2022-08-11T12:10:39.417Z,29.77
2022-08-11T12:13:25.089Z,29.66
2022-08-11T12:16:32.824Z,29.86
2022-08-11T12:18:42.859Z,29.70
2022-08-11T12:21:10.824Z,29.60
2022-08-11T12:24:02.251Z,29.97
2022-08-11T12:27:01.403Z,30.12
2022-08-11T12:29:41.192Z,29.78
2022-08-11T12:32:11.132Z,29.69
2022-08-11T12:34:37.876Z,29.63
2022-08-11T12:37:08.694Z,29.80
2022-08-11T12:40:10.750Z,30.05
2022-08-11T12:42:58.694Z,29.87
2022-08-11T12:45:27.809Z,29.92
2022-08-11T12:48:57.512Z,30.03
2022-08-11T12:52:10.996Z,29.92
2022-08-11T12:54:34.547Z,29.49
2022-08-11T12:57:24.167Z,29.96
2022-08-11T13:00:25.533Z,29.89
2022-08-11T13:03:12.469Z,30.26
2022-08-11T13:05:44.533Z,30.10
2022-08-11T13:08:15.321Z,30.07
2022-08-11T13:11:03.578Z,30.11
2022-08-11T13:13:53.852Z,30.08
2022-08-11T13:16:20.819Z,30.43
2022-08-11T13:18:48.742Z,30.51
2022-08-11T13:21:19.945Z,30.59
2022-08-11T13:24:00.264Z,30.24
2022-08-11T13:26:46.745Z,30.21
2022-08-11T13:29:25.448Z,30.05
2022-08-11T13:31:56.170Z,30.20
2022-08-11T13:34:27.125Z,30.15
2022-08-11T13:36:57.142Z,30.26
2022-08-11T13:39:26.618Z,30.37
2022-08-11T13:41:56.659Z,30.38
2022-08-11T13:44:27.249Z,30.23
2022-08-11T13:47:02.536Z,30.17
2022-08-11T13:49:31.260Z,29.98
2022-08-11T13:51:59.346Z,29.94
2022-08-11T13:54:30.186Z,30.02
2022-08-11T13:57:03.229Z,29.57
2022-08-11T13:59:45.281Z,30.03
2022-08-11T14:02:29.209Z,30.04
2022-08-11T14:05:10.106Z,29.94
2022-08-11T14:07:46.372Z,29.75
2022-08-11T14:10:14.961Z,30.04
2022-08-11T14:13:09.402Z,29.89
2022-08-11T14:15:36.895Z,29.94
2022-08-11T14:18:05.478Z,29.80
2022-08-11T14:20:53.322Z,29.70
2022-08-11T14:23:28.816Z,29.96
2022-08-11T14:26:15.085Z,29.97
2022-08-11T14:28:45.042Z,29.83
2022-08-11T14:31:15.516Z,29.97
2022-08-11T14:33:59.688Z,30.32
2022-08-11T14:36:32.315Z,30.54
2022-08-11T14:38:59.665Z,30.10
2022-08-11T14:42:09.834Z,30.00
2022-08-11T14:44:54.883Z,29.89
2022-08-11T14:47:25.413Z,30.13
2022-08-11T14:50:10.291Z,30.22
2022-08-11T14:52:41.204Z,30.31
2022-08-11T14:55:27.560Z,29.93
2022-08-11T14:57:56.983Z,29.90
2022-08-11T15:00:25.078Z,30.29
2022-08-11T15:03:12.626Z,30.19
2022-08-11T15:05:45.122Z,30.13
2022-08-11T15:08:46.207Z,29.99
2022-08-11T15:11:33.148Z,30.08
2022-08-11T15:14:02.364Z,30.00
2022-08-11T15:16:48.958Z,29.97
2022-08-11T15:19:19.626Z,29.98
2022-08-11T15:22:05.031Z,29.99
2022-08-11T15:24:33.726Z,29.89
2022-08-11T15:27:36.663Z,29.94
2022-08-11T15:30:32.491Z,29.80
2022-08-11T15:33:24.325Z,29.96
2022-08-11T15:36:11.729Z,29.87
2022-08-11T15:38:47.475Z,29.71
2022-08-11T15:41:36.376Z,29.72
2022-08-11T15:44:51.169Z,29.73
2022-08-11T15:47:16.010Z,29.52
2022-08-11T15:50:12.109Z,29.45
2022-08-11T15:52:43.594Z,29.55
2022-08-11T15:55:11.206Z,29.19
2022-08-11T15:57:57.731Z,29.49
2022-08-11T16:00:43.605Z,29.54
2022-08-11T16:04:06.465Z,29.41
2022-08-11T16:06:18.305Z,29.24
2022-08-11T16:08:45.998Z,29.64
2022-08-11T16:11:13.903Z,29.30
2022-08-11T16:13:40.956Z,29.16
2022-08-11T16:16:14.597Z,29.19
2022-08-11T16:18:56.599Z,29.29
2022-08-11T16:21:34.825Z,29.05
2022-08-11T16:24:08.222Z,29.26
2022-08-11T16:27:10.938Z,28.96
2022-08-11T16:29:31.950Z,29.30
2022-08-11T16:32:32.331Z,29.15
2022-08-11T16:35:26.378Z,28.90
2022-08-11T16:38:12.830Z,28.81
2022-08-11T16:40:41.709Z,28.75
2022-08-11T16:43:31.041Z,28.78
2022-08-11T16:46:18.150Z,28.81
2022-08-11T16:48:48.220Z,28.82
2022-08-11T16:51:15.739Z,28.61
2022-08-11T16:53:54.710Z,28.69
2022-08-11T16:56:35.614Z,28.86
2022-08-11T16:59:17.645Z,28.56
2022-08-11T17:02:12.683Z,28.41
2022-08-11T17:05:12.152Z,28.48
2022-08-11T17:08:01.314Z,28.49
2022-08-11T17:11:21.346Z,28.33
2022-08-11T17:14:03.946Z,28.28
2022-08-11T17:16:39.341Z,28.26
2022-08-11T17:19:18.461Z,28.30
2022-08-11T17:22:24.652Z,28.23
2022-08-11T17:24:51.824Z,28.21
2022-08-11T17:27:21.158Z,28.10
2022-08-11T17:29:54.893Z,28.10
2022-08-11T17:32:56.237Z,27.92
2022-08-11T17:35:31.146Z,27.90
2022-08-11T17:38:10.078Z,27.86
2022-08-11T17:40:39.509Z,27.95
2022-08-11T17:43:28.943Z,27.76
2022-08-11T17:46:16.304Z,27.33
2022-08-11T17:48:47.723Z,27.10
2022-08-11T17:51:39.429Z,27.34
2022-08-11T17:54:26.008Z,27.24
2022-08-11T17:57:20.297Z,26.89
2022-08-11T17:59:55.318Z,26.84
2022-08-11T18:03:01.214Z,26.57
2022-08-11T18:05:34.355Z,26.62
2022-08-11T18:08:23.580Z,26.39
2022-08-11T18:11:09.160Z,26.33
2022-08-11T18:13:57.055Z,26.26
2022-08-11T18:16:42.935Z,26.16
2022-08-11T18:19:30.903Z,26.18
2022-08-11T18:22:27.944Z,26.07
2022-08-11T18:25:20.247Z,26.05
2022-08-11T18:28:07.295Z,25.88
2022-08-11T18:31:03.484Z,25.97
2022-08-11T18:34:13.851Z,25.67
2022-08-11T18:37:21.769Z,25.64
2022-08-11T18:40:15.847Z,25.58
2022-08-11T18:43:03.892Z,25.41
2022-08-11T18:46:05.270Z,25.33
2022-08-11T18:48:54.125Z,25.15
2022-08-11T18:51:41.646Z,25.27
2022-08-11T18:54:29.989Z,25.15
2022-08-11T18:57:18.409Z,25.14
2022-08-11T19:00:06.032Z,25.01
2022-08-11T19:02:55.512Z,24.84
2022-08-11T19:06:31.815Z,24.74
2022-08-11T19:08:53.714Z,24.73
2022-08-11T19:11:42.636Z,24.57
2022-08-11T19:14:31.222Z,24.51
2022-08-11T19:17:44.683Z,24.51
2022-08-11T19:20:27.052Z,24.44
2022-08-11T19:23:14.991Z,24.34
2022-08-11T19:26:03.814Z,24.30
2022-08-11T19:28:50.670Z,24.28
2022-08-11T19:31:38.850Z,24.29
2022-08-11T19:34:28.707Z,24.18
2022-08-11T19:37:15.189Z,24.06
2022-08-11T19:40:01.332Z,23.99
2022-08-11T19:42:47.802Z,23.92
2022-08-11T19:45:34.834Z,23.80
2022-08-11T19:48:35.405Z,23.65
2022-08-11T19:51:20.965Z,23.54
2022-08-11T19:54:08.084Z,23.41
2022-08-11T19:56:55.266Z,23.29
2022-08-11T19:59:41.897Z,23.16
2022-08-11T20:02:28.582Z,23.10
2022-08-11T20:05:13.945Z,23.05
2022-08-11T20:07:59.827Z,22.95
2022-08-11T20:10:48.127Z,22.86
2022-08-11T20:13:34.576Z,22.90
2022-08-11T20:16:22.159Z,22.81
2022-08-11T20:19:09.640Z,22.79
2022-08-11T20:21:57.852Z,22.66
2022-08-11T20:24:43.676Z,22.53
2022-08-11T20:27:30.092Z,22.59
2022-08-11T20:30:18.039Z,22.52
2022-08-11T20:33:03.630Z,22.38
2022-08-11T20:35:51.980Z,22.35
2022-08-11T20:38:41.815Z,22.14
2022-08-11T20:41:30.289Z,22.15
2022-08-11T20:44:17.618Z,22.08
2022-08-11T20:47:05.105Z,21.98
2022-08-11T20:49:59.359Z,21.89
2022-08-11T20:52:48.990Z,21.57
2022-08-11T20:55:46.420Z,21.45
2022-08-11T21:01:45.551Z,21.10
2022-08-11T21:04:32.514Z,21.14
2022-08-11T21:07:28.507Z,21.25
2022-08-11T21:10:23.233Z,21.23
2022-08-11T21:13:26.116Z,20.87
2022-08-11T21:16:26.614Z,20.89
2022-08-11T21:19:59.872Z,20.81
2022-08-11T21:23:09.294Z,20.84
2022-08-11T21:26:06.591Z,20.59
2022-08-11T21:28:54.875Z,20.46
2022-08-11T21:31:42.291Z,20.33
2022-08-11T21:34:30.202Z,20.15
2022-08-11T21:37:18.889Z,20.08
2022-08-11T21:40:07.245Z,20.12
2022-08-11T21:42:56.205Z,20.18
2022-08-11T21:45:42.419Z,20.20
2022-08-11T21:48:30.383Z,20.19
2022-08-11T21:51:15.846Z,20.05
2022-08-11T21:54:01.842Z,19.98
2022-08-11T21:56:49.723Z,19.99
2022-08-11T21:59:40.825Z,19.92
2022-08-11T22:02:26.506Z,19.85
2022-08-11T22:05:12.537Z,19.72
2022-08-11T22:07:58.360Z,19.69
2022-08-11T22:10:43.486Z,19.65
2022-08-11T22:13:31.958Z,19.58
2022-08-11T22:16:19.174Z,19.59
2022-08-11T22:19:09.818Z,19.38
2022-08-11T22:22:01.527Z,19.29
2022-08-11T22:24:51.359Z,19.28
2022-08-11T22:27:36.802Z,19.12
2022-08-11T22:30:24.305Z,19.11
2022-08-11T22:33:10.172Z,19.06
2022-08-11T22:36:00.158Z,18.98
2022-08-11T22:38:46.087Z,18.98
2022-08-11T22:41:32.077Z,18.86
2022-08-11T22:44:17.268Z,18.85
2022-08-11T22:47:03.763Z,18.87
2022-08-11T22:49:57.293Z,18.87
2022-08-11T22:52:45.097Z,18.80
2022-08-11T22:55:31.800Z,18.71
2022-08-11T22:58:17.361Z,18.67
2022-08-11T23:01:02.897Z,18.72
2022-08-11T23:03:50.821Z,18.65
2022-08-11T23:06:38.137Z,18.62
2022-08-11T23:09:25.149Z,18.40
2022-08-11T23:12:10.819Z,18.30
2022-08-11T23:14:58.352Z,18.36
2022-08-11T23:17:45.313Z,18.43
2022-08-11T23:20:43.300Z,18.33
2022-08-11T23:23:38.199Z,18.10
2022-08-11T23:26:24.233Z,18.02
2022-08-11T23:29:11.205Z,17.98
2022-08-11T23:31:57.372Z,18.05
2022-08-11T23:35:04.497Z,17.88
2022-08-11T23:37:51.196Z,17.90
2022-08-11T23:40:36.642Z,17.74
2022-08-11T23:43:22.281Z,17.79
2022-08-11T23:46:08.814Z,17.64
2022-08-11T23:48:56.811Z,17.68
2022-08-11T23:51:44.325Z,17.58
2022-08-11T23:54:35.106Z,17.42
2022-08-11T23:57:22.918Z,17.52
